createdAt,value
2022-12-20T00:01:30.676Z,0.66
2022-12-20T00:04:00.406Z,0.67
2022-12-20T00:06:28.179Z,0.67
2022-12-20T00:08:58.706Z,0.66
2022-12-20T00:11:27.157Z,0.67
2022-12-20T00:13:55.078Z,0.70
2022-12-20T00:16:25.027Z,0.68
2022-12-20T00:18:54.263Z,0.72
2022-12-20T00:21:22.617Z,0.71
2022-12-20T00:23:50.356Z,0.72
2022-12-20T00:26:21.783Z,0.72
2022-12-20T00:28:49.875Z,0.71
2022-12-20T00:31:20.306Z,0.71
2022-12-20T00:33:50.213Z,0.78
2022-12-20T00:36:19.078Z,0.97
2022-12-20T00:38:47.924Z,1.11
2022-12-20T00:41:17.950Z,1.24
2022-12-20T00:43:47.505Z,1.30
2022-12-20T00:46:16.720Z,1.28
2022-12-20T00:48:44.562Z,1.30
2022-12-20T00:51:14.997Z,1.32
2022-12-20T00:53:43.651Z,1.38
2022-12-20T00:56:12.843Z,1.38
2022-12-20T00:58:42.682Z,1.37
2022-12-20T01:01:19.855Z,1.40
2022-12-20T01:03:49.630Z,1.48
2022-12-20T01:06:18.200Z,1.46
2022-12-20T01:08:45.861Z,1.35
2022-12-20T01:11:16.114Z,1.22
2022-12-20T01:13:46.793Z,1.15
2022-12-20T01:16:19.199Z,1.26
2022-12-20T01:18:48.205Z,1.30
2022-12-20T01:21:17.632Z,1.27
2022-12-20T01:23:45.333Z,1.29
2022-12-20T01:26:15.020Z,1.30
2022-12-20T01:28:45.144Z,1.37
2022-12-20T01:31:16.179Z,1.44
2022-12-20T01:33:46.749Z,1.45
2022-12-20T01:36:16.558Z,1.49
2022-12-20T01:38:44.654Z,1.44
2022-12-20T01:41:16.654Z,1.39
2022-12-20T01:43:51.444Z,1.41
2022-12-20T01:46:20.572Z,1.45
2022-12-20T01:48:53.602Z,1.44
2022-12-20T01:51:22.255Z,1.41
2022-12-20T01:53:55.906Z,1.40
2022-12-20T01:56:24.024Z,1.43
2022-12-20T01:58:55.015Z,1.37
2022-12-20T02:01:23.982Z,1.36
2022-12-20T02:03:56.449Z,1.32
2022-12-20T02:06:26.001Z,1.29
2022-12-20T02:08:56.908Z,1.29
2022-12-20T02:11:59.260Z,1.27
2022-12-20T02:14:43.563Z,1.26
2022-12-20T02:17:19.168Z,1.27
2022-12-20T02:20:20.285Z,1.30
2022-12-20T02:23:09.874Z,1.32
2022-12-20T02:25:59.754Z,1.44
2022-12-20T02:28:45.737Z,1.45
2022-12-20T02:31:19.375Z,1.42
2022-12-20T02:33:49.967Z,1.44
2022-12-20T02:36:17.979Z,1.51
2022-12-20T02:38:46.896Z,1.55
2022-12-20T02:41:19.165Z,1.59
2022-12-20T02:44:08.917Z,1.61
2022-12-20T02:46:39.692Z,1.60
2022-12-20T02:49:14.703Z,1.63
2022-12-20T02:51:45.559Z,1.76
2022-12-20T02:54:14.310Z,1.75
2022-12-20T02:56:46.683Z,1.79
2022-12-20T02:59:19.340Z,1.84
2022-12-20T03:01:52.074Z,1.86
2022-12-20T03:04:22.864Z,1.87
2022-12-20T03:07:07.046Z,1.90
2022-12-20T03:09:37.911Z,1.87
2022-12-20T03:12:07.491Z,1.97
2022-12-20T03:14:38.031Z,1.96
2022-12-20T03:17:09.958Z,1.97
2022-12-20T03:19:39.357Z,1.98
2022-12-20T03:22:07.085Z,1.87
2022-12-20T03:24:34.838Z,1.79
2022-12-20T03:27:07.254Z,1.74
2022-12-20T03:29:35.038Z,1.75
2022-12-20T03:32:03.082Z,1.76
2022-12-20T03:34:32.234Z,1.76
2022-12-20T03:37:01.733Z,1.74
2022-12-20T03:39:29.662Z,1.73
2022-12-20T03:41:57.675Z,1.74
2022-12-20T03:44:26.363Z,1.77
2022-12-20T03:46:55.518Z,1.73
2022-12-20T03:49:23.346Z,1.72
2022-12-20T03:51:54.497Z,1.71
2022-12-20T03:54:23.744Z,1.84
2022-12-20T03:57:09.883Z,1.84
2022-12-20T03:59:37.975Z,1.85
2022-12-20T04:02:08.227Z,1.79
2022-12-20T04:04:36.012Z,1.74
2022-12-20T04:07:05.180Z,1.75
2022-12-20T04:09:34.404Z,1.75
2022-12-20T04:12:08.815Z,1.75
2022-12-20T04:14:38.780Z,1.84
2022-12-20T04:17:07.652Z,1.92
2022-12-20T04:19:36.271Z,1.89
2022-12-20T04:22:06.904Z,1.85
2022-12-20T04:24:49.542Z,2.07
2022-12-20T04:27:23.480Z,2.11
2022-12-20T04:29:53.672Z,2.19
2022-12-20T04:32:22.168Z,2.15
2022-12-20T04:34:50.777Z,2.15
2022-12-20T04:37:20.571Z,2.22
2022-12-20T04:39:53.340Z,2.26
2022-12-20T04:42:24.216Z,2.30
2022-12-20T04:44:53.556Z,2.27
2022-12-20T04:47:25.474Z,2.41
2022-12-20T04:49:54.716Z,2.45
2022-12-20T04:52:47.305Z,2.64
2022-12-20T04:55:16.081Z,2.62
2022-12-20T04:57:43.785Z,2.65
2022-12-20T05:00:15.326Z,2.60
2022-12-20T05:02:45.579Z,2.63
2022-12-20T05:05:16.996Z,2.58
2022-12-20T05:07:52.333Z,2.61
2022-12-20T05:10:21.483Z,2.58
2022-12-20T05:12:50.730Z,2.57
2022-12-20T05:15:29.563Z,2.68
2022-12-20T05:17:59.444Z,2.71
2022-12-20T05:20:32.877Z,2.64
2022-12-20T05:23:21.149Z,2.61
2022-12-20T05:26:12.278Z,2.56
2022-12-20T05:28:40.668Z,2.56
2022-12-20T05:31:08.408Z,2.61
2022-12-20T05:33:37.136Z,2.62
2022-12-20T05:36:06.939Z,2.63
2022-12-20T05:38:36.520Z,2.61
2022-12-20T05:41:10.257Z,2.55
2022-12-20T05:43:38.947Z,2.53
2022-12-20T05:46:07.905Z,2.48
2022-12-20T05:48:45.477Z,2.42
2022-12-20T05:51:13.592Z,2.34
2022-12-20T05:54:05.745Z,2.21
2022-12-20T05:56:47.278Z,2.17
2022-12-20T05:59:18.670Z,2.13
2022-12-20T06:01:47.585Z,2.14
2022-12-20T06:04:15.897Z,2.30
2022-12-20T06:06:45.169Z,2.39
2022-12-20T06:09:17.275Z,2.51
2022-12-20T06:11:51.030Z,2.54
2022-12-20T06:14:18.957Z,2.49
2022-12-20T06:16:48.969Z,2.40
2022-12-20T06:19:21.682Z,2.43
2022-12-20T06:21:52.541Z,2.46
2022-12-20T06:24:28.384Z,2.42
2022-12-20T06:26:56.405Z,2.39
2022-12-20T06:29:26.172Z,2.38
2022-12-20T06:32:05.318Z,2.37
2022-12-20T06:34:33.384Z,2.34
2022-12-20T06:37:01.967Z,2.35
2022-12-20T06:39:35.108Z,2.49
2022-12-20T06:42:09.137Z,2.59
2022-12-20T06:44:39.012Z,2.63
2022-12-20T06:47:06.944Z,2.52
2022-12-20T06:49:34.768Z,2.46
2022-12-20T06:52:10.181Z,2.48
2022-12-20T06:54:47.847Z,2.50
2022-12-20T06:57:15.937Z,2.47
2022-12-20T06:59:46.961Z,2.42
2022-12-20T07:02:15.527Z,2.46
2022-12-20T07:04:43.573Z,2.67
2022-12-20T07:07:13.053Z,2.72
2022-12-20T07:09:42.727Z,2.69
2022-12-20T07:12:12.455Z,2.69
2022-12-20T07:14:40.158Z,2.60
2022-12-20T07:17:08.434Z,2.52
2022-12-20T07:19:37.391Z,2.51
2022-12-20T07:22:05.916Z,2.56
2022-12-20T07:24:33.910Z,2.57
2022-12-20T07:27:02.633Z,2.58
2022-12-20T07:29:31.722Z,2.58
2022-12-20T07:32:00.180Z,2.68
2022-12-20T07:34:28.151Z,2.72
2022-12-20T07:36:55.844Z,2.69
2022-12-20T07:39:24.633Z,2.68
2022-12-20T07:41:55.241Z,2.69
2022-12-20T07:44:23.933Z,2.71
2022-12-20T07:46:53.223Z,2.80
2022-12-20T07:49:22.035Z,2.85
2022-12-20T07:51:52.628Z,2.83
2022-12-20T07:54:23.688Z,2.86
2022-12-20T07:56:55.894Z,2.84
2022-12-20T07:59:27.627Z,2.82
2022-12-20T08:02:02.555Z,2.80
2022-12-20T08:04:33.052Z,2.80
2022-12-20T08:07:02.675Z,2.84
2022-12-20T08:09:35.425Z,2.76
2022-12-20T08:12:03.535Z,2.78
2022-12-20T08:14:31.651Z,2.82
2022-12-20T08:17:00.838Z,2.82
2022-12-20T08:19:32.429Z,2.82
2022-12-20T08:22:00.744Z,2.82
2022-12-20T08:24:28.362Z,2.86
2022-12-20T08:26:56.391Z,2.88
2022-12-20T08:29:24.033Z,2.88
2022-12-20T08:31:52.306Z,2.93
2022-12-20T08:34:21.598Z,2.89
2022-12-20T08:36:49.293Z,3.00
2022-12-20T08:39:17.010Z,3.16
2022-12-20T08:41:44.703Z,3.14
2022-12-20T08:44:12.424Z,3.09
2022-12-20T08:46:40.143Z,2.97
2022-12-20T08:49:07.935Z,2.85
2022-12-20T08:51:37.041Z,2.83
2022-12-20T08:54:04.969Z,2.86
2022-12-20T08:56:32.717Z,2.90
2022-12-20T08:59:00.438Z,2.92
2022-12-20T09:01:30.305Z,2.98
2022-12-20T09:03:58.123Z,3.01
2022-12-20T09:06:26.099Z,3.04
2022-12-20T09:08:55.566Z,3.14
2022-12-20T09:11:25.317Z,3.19
2022-12-20T09:13:55.714Z,3.31
2022-12-20T09:16:26.702Z,3.37
2022-12-20T09:19:04.332Z,3.48
2022-12-20T09:21:33.119Z,3.47
2022-12-20T09:24:02.205Z,3.58
2022-12-20T09:26:30.629Z,3.63
2022-12-20T09:28:59.285Z,3.64
2022-12-20T09:31:27.751Z,3.59
2022-12-20T09:33:57.879Z,3.61
2022-12-20T09:36:27.884Z,3.63
2022-12-20T09:38:56.431Z,3.64
2022-12-20T09:41:32.772Z,3.61
2022-12-20T09:44:04.765Z,3.48
2022-12-20T09:46:33.161Z,3.40
2022-12-20T09:49:00.991Z,3.47
2022-12-20T09:51:40.465Z,3.60
2022-12-20T09:54:22.402Z,3.68
2022-12-20T09:57:01.241Z,3.76
2022-12-20T09:59:34.179Z,3.86
2022-12-20T10:02:44.050Z,3.91
2022-12-20T10:04:58.585Z,3.97
2022-12-20T10:07:36.794Z,3.99
2022-12-20T10:10:25.653Z,3.89
2022-12-20T10:13:07.278Z,3.91
2022-12-20T10:15:39.629Z,3.99
2022-12-20T10:18:23.178Z,4.05
2022-12-20T10:21:00.796Z,4.09
2022-12-20T10:23:34.723Z,4.15
2022-12-20T10:26:02.393Z,4.19
2022-12-20T10:28:35.509Z,4.14
2022-12-20T10:31:07.048Z,4.04
2022-12-20T10:33:35.491Z,3.87
2022-12-20T10:36:21.667Z,3.65
2022-12-20T10:38:51.613Z,3.55
2022-12-20T10:41:22.636Z,3.58
2022-12-20T10:43:56.229Z,3.60
2022-12-20T10:46:25.238Z,3.70
2022-12-20T10:48:52.943Z,3.86
2022-12-20T10:51:22.704Z,3.90
2022-12-20T10:53:57.145Z,3.90
2022-12-20T10:56:28.553Z,3.90
2022-12-20T10:59:02.965Z,3.89
2022-12-20T11:01:34.405Z,4.06
2022-12-20T11:04:04.395Z,4.12
2022-12-20T11:06:43.430Z,4.18
2022-12-20T11:09:23.261Z,4.18
2022-12-20T11:12:06.195Z,4.12
2022-12-20T11:14:39.623Z,4.13
2022-12-20T11:17:23.332Z,4.14
2022-12-20T11:20:14.451Z,4.25
2022-12-20T11:22:52.462Z,4.40
2022-12-20T11:25:32.773Z,4.53
2022-12-20T11:28:17.423Z,4.55
2022-12-20T11:30:55.171Z,4.51
2022-12-20T11:33:53.934Z,4.45
2022-12-20T11:36:34.083Z,4.47
2022-12-20T11:39:11.881Z,4.50
2022-12-20T11:41:47.618Z,4.56
2022-12-20T11:44:27.777Z,4.61
2022-12-20T11:47:25.276Z,4.60
2022-12-20T11:50:13.102Z,4.57
2022-12-20T11:52:48.516Z,4.54
2022-12-20T11:55:21.709Z,4.48
2022-12-20T11:58:28.125Z,4.43
2022-12-20T12:00:58.785Z,4.42
2022-12-20T12:03:33.742Z,4.44
2022-12-20T12:06:06.419Z,4.52
2022-12-20T12:08:43.539Z,4.56
2022-12-20T12:11:55.567Z,4.54
2022-12-20T12:14:08.192Z,4.38
2022-12-20T12:16:41.328Z,4.39
2022-12-20T12:19:13.277Z,4.43
2022-12-20T12:21:45.494Z,4.38
2022-12-20T12:24:24.307Z,4.31
2022-12-20T12:26:53.396Z,4.21
2022-12-20T12:29:22.056Z,4.31
2022-12-20T12:31:55.690Z,4.34
2022-12-20T12:34:40.035Z,4.36
2022-12-20T12:37:40.149Z,4.30
2022-12-20T12:40:46.079Z,4.24
2022-12-20T12:43:47.804Z,4.33
2022-12-20T12:46:19.774Z,4.34
2022-12-20T12:48:55.619Z,4.44
2022-12-20T12:51:31.430Z,4.61
2022-12-20T12:54:18.383Z,4.71
2022-12-20T12:56:47.426Z,4.85
2022-12-20T12:59:51.714Z,5.01
2022-12-20T13:02:37.405Z,5.17
2022-12-20T13:05:34.395Z,5.31
2022-12-20T13:08:04.610Z,5.43
2022-12-20T13:11:00.323Z,5.50
2022-12-20T13:13:28.334Z,5.53
2022-12-20T13:16:11.101Z,5.57
2022-12-20T13:18:38.879Z,5.59
2022-12-20T13:21:23.141Z,5.58
2022-12-20T13:24:42.230Z,5.57
2022-12-20T13:27:24.894Z,5.51
2022-12-20T13:29:57.064Z,5.49
2022-12-20T13:32:55.772Z,5.47
2022-12-20T13:35:33.046Z,5.51
2022-12-20T13:38:04.636Z,5.46
2022-12-20T13:40:39.432Z,5.37
2022-12-20T13:43:13.190Z,5.35
2022-12-20T13:45:47.160Z,5.27
2022-12-20T13:48:19.696Z,5.24
2022-12-20T13:50:50.948Z,5.20
2022-12-20T13:53:20.738Z,5.14
2022-12-20T13:55:50.683Z,5.12
2022-12-20T13:58:21.005Z,5.10
2022-12-20T14:00:50.827Z,5.12
2022-12-20T14:03:23.786Z,5.11
2022-12-20T14:05:57.471Z,5.05
2022-12-20T14:08:29.492Z,5.09
2022-12-20T14:11:08.947Z,5.13
2022-12-20T14:13:36.707Z,5.13
2022-12-20T14:16:09.338Z,5.14
2022-12-20T14:18:37.085Z,5.25
2022-12-20T14:21:06.539Z,5.37
2022-12-20T14:23:39.221Z,5.47
2022-12-20T14:26:12.922Z,5.49
2022-12-20T14:28:44.304Z,5.52
2022-12-20T14:31:25.376Z,5.46
2022-12-20T14:34:01.735Z,5.50
2022-12-20T14:36:30.565Z,5.45
2022-12-20T14:38:58.773Z,5.35
2022-12-20T14:41:37.208Z,5.21
2022-12-20T14:44:16.681Z,5.13
2022-12-20T14:46:49.813Z,5.15
2022-12-20T14:49:25.670Z,5.01
2022-12-20T14:52:06.510Z,4.83
2022-12-20T14:55:07.305Z,4.70
2022-12-20T14:57:30.472Z,4.80
2022-12-20T15:00:01.433Z,4.90
2022-12-20T15:02:36.819Z,4.90
2022-12-20T15:05:23.790Z,4.80
2022-12-20T15:07:51.497Z,4.93
2022-12-20T15:10:19.506Z,5.06
2022-12-20T15:12:48.537Z,5.18
2022-12-20T15:15:29.172Z,5.25
2022-12-20T15:17:57.648Z,5.34
2022-12-20T15:20:25.326Z,5.37
2022-12-20T15:22:53.175Z,5.39
2022-12-20T15:25:21.339Z,5.37
2022-12-20T15:27:50.651Z,5.40
2022-12-20T15:30:19.088Z,5.41
2022-12-20T15:32:55.293Z,5.29
2022-12-20T15:35:24.841Z,5.36
2022-12-20T15:37:53.020Z,5.45
2022-12-20T15:40:20.903Z,5.59
2022-12-20T15:42:50.009Z,5.56
2022-12-20T15:45:17.747Z,5.57
2022-12-20T15:47:45.567Z,5.48
2022-12-20T15:50:13.754Z,5.45
2022-12-20T15:52:41.857Z,5.36
2022-12-20T15:55:12.035Z,5.28
2022-12-20T15:57:39.638Z,5.24
2022-12-20T16:00:11.279Z,5.26
2022-12-20T16:02:41.855Z,5.21
2022-12-20T16:05:13.757Z,5.18
2022-12-20T16:07:41.528Z,5.15
2022-12-20T16:10:13.761Z,5.12
2022-12-20T16:12:42.018Z,5.14
2022-12-20T16:15:21.357Z,5.16
2022-12-20T16:17:49.116Z,5.28
2022-12-20T16:20:17.012Z,5.31
2022-12-20T16:22:44.807Z,5.47
2022-12-20T16:25:24.979Z,5.36
2022-12-20T16:27:52.811Z,5.33
2022-12-20T16:30:22.469Z,5.34
2022-12-20T16:32:51.178Z,5.33
2022-12-20T16:35:25.867Z,5.35
2022-12-20T16:37:54.355Z,5.32
2022-12-20T16:40:23.277Z,5.35
2022-12-20T16:42:50.981Z,5.29
2022-12-20T16:45:21.120Z,5.33
2022-12-20T16:47:50.410Z,5.32
2022-12-20T16:50:20.258Z,5.30
2022-12-20T16:52:48.002Z,5.34
2022-12-20T16:55:19.577Z,5.33
2022-12-20T16:57:47.389Z,5.35
2022-12-20T17:00:19.335Z,5.27
2022-12-20T17:02:47.264Z,5.25
2022-12-20T17:05:29.249Z,5.18
2022-12-20T17:07:57.389Z,5.19
2022-12-20T17:10:26.933Z,5.17
2022-12-20T17:12:54.741Z,5.19
2022-12-20T17:15:25.487Z,5.25
2022-12-20T17:17:54.095Z,5.23
2022-12-20T17:20:23.953Z,5.28
2022-12-20T17:25:40.356Z,5.24
2022-12-20T17:28:07.974Z,5.26
2022-12-20T17:30:35.971Z,5.26
2022-12-20T17:33:04.157Z,5.31
2022-12-20T17:35:33.956Z,5.30
2022-12-20T17:38:03.061Z,5.32
2022-12-20T17:40:31.349Z,5.31
2022-12-20T17:42:59.122Z,5.32
2022-12-20T17:45:30.660Z,5.32
2022-12-20T17:47:59.050Z,5.29
2022-12-20T17:50:27.676Z,5.39
2022-12-20T17:52:55.581Z,5.42
2022-12-20T17:55:27.091Z,5.49
2022-12-20T17:57:56.679Z,5.59
2022-12-20T18:00:30.751Z,5.55
2022-12-20T18:03:04.761Z,5.50
2022-12-20T18:05:32.497Z,5.42
2022-12-20T18:08:00.347Z,5.38
2022-12-20T18:10:29.351Z,5.30
2022-12-20T18:12:57.121Z,5.45
2022-12-20T18:15:25.086Z,5.30
2022-12-20T18:17:52.834Z,5.31
2022-12-20T18:20:20.676Z,5.26
2022-12-20T18:22:48.394Z,5.24
2022-12-20T18:25:18.212Z,5.28
2022-12-20T18:27:47.675Z,5.22
2022-12-20T18:30:15.701Z,5.13
2022-12-20T18:32:43.632Z,5.12
2022-12-20T18:35:11.923Z,5.08
2022-12-20T18:37:39.674Z,5.12
2022-12-20T18:40:09.147Z,5.10
2022-12-20T18:42:36.891Z,5.05
2022-12-20T18:45:07.087Z,5.01
2022-12-20T18:47:35.675Z,5.00
2022-12-20T18:50:03.476Z,5.09
2022-12-20T18:55:40.350Z,5.31
2022-12-20T18:58:08.049Z,5.22
2022-12-20T19:00:37.156Z,5.07
2022-12-20T19:03:05.176Z,4.99
2022-12-20T19:05:33.789Z,4.93
2022-12-20T19:08:01.684Z,4.89
2022-12-20T19:10:33.096Z,4.89
2022-12-20T19:13:05.751Z,4.81
2022-12-20T19:15:34.071Z,4.77
2022-12-20T19:18:03.251Z,4.82
2022-12-20T19:20:31.019Z,4.84
2022-12-20T19:22:58.748Z,4.89
2022-12-20T19:25:26.660Z,4.97
2022-12-20T19:27:54.650Z,5.05
2022-12-20T19:30:22.686Z,5.05
2022-12-20T19:32:50.492Z,5.02
2022-12-20T19:35:53.661Z,5.08
2022-12-20T19:38:08.112Z,5.04
2022-12-20T19:40:35.885Z,5.16
2022-12-20T19:43:03.898Z,5.08
2022-12-20T19:45:31.556Z,5.05
2022-12-20T19:47:59.261Z,5.13
2022-12-20T19:50:28.487Z,5.11
2022-12-20T19:52:56.391Z,5.08
2022-12-20T19:55:24.608Z,5.00
2022-12-20T19:57:52.322Z,4.98
2022-12-20T20:00:20.601Z,4.93
2022-12-20T20:02:48.597Z,4.83
2022-12-20T20:05:16.589Z,4.80
2022-12-20T20:07:46.296Z,4.76
2022-12-20T20:10:14.234Z,4.75
2022-12-20T20:12:41.984Z,4.73
2022-12-20T20:15:10.402Z,4.80
2022-12-20T20:17:38.378Z,4.85
2022-12-20T20:20:07.858Z,4.89
2022-12-20T20:22:35.651Z,4.87
2022-12-20T20:25:05.416Z,4.89
2022-12-20T20:27:33.180Z,4.85
2022-12-20T20:30:01.315Z,4.81
2022-12-20T20:32:29.130Z,4.84
2022-12-20T20:34:56.850Z,4.88
2022-12-20T20:37:25.071Z,4.92
2022-12-20T20:39:52.770Z,4.90
2022-12-20T20:42:23.629Z,4.87
2022-12-20T20:44:51.675Z,4.85
2022-12-20T20:47:20.724Z,4.83
2022-12-20T20:49:48.649Z,4.89
2022-12-20T20:52:16.490Z,4.96
2022-12-20T20:54:44.257Z,4.95
2022-12-20T20:57:12.066Z,4.93
2022-12-20T20:59:41.292Z,4.87
2022-12-20T21:02:13.306Z,4.84
2022-12-20T21:04:41.418Z,4.81
2022-12-20T21:07:09.862Z,4.80
2022-12-20T21:09:37.736Z,4.82
2022-12-20T21:12:06.018Z,4.81
2022-12-20T21:15:10.750Z,4.78
2022-12-20T21:17:23.074Z,4.78
2022-12-20T21:19:51.106Z,4.80
2022-12-20T21:22:19.469Z,4.77
2022-12-20T21:24:47.587Z,4.73
2022-12-20T21:27:15.408Z,4.77
2022-12-20T21:29:43.130Z,4.77
2022-12-20T21:32:11.151Z,4.73
2022-12-20T21:34:40.430Z,4.82
2022-12-20T21:37:08.553Z,4.81
2022-12-20T21:39:36.846Z,4.82
2022-12-20T21:42:04.680Z,4.92
2022-12-20T21:44:32.367Z,4.88
2022-12-20T21:47:00.417Z,4.92
2022-12-20T21:49:28.312Z,4.91
2022-12-20T21:51:58.196Z,4.92
2022-12-20T21:54:26.012Z,4.95
2022-12-20T21:56:53.680Z,5.00
2022-12-20T21:59:21.662Z,5.02
2022-12-20T22:01:49.816Z,5.02
2022-12-20T22:04:19.474Z,5.06
2022-12-20T22:06:47.233Z,5.10
2022-12-20T22:09:17.252Z,5.15
2022-12-20T22:11:47.324Z,5.17
2022-12-20T22:14:15.723Z,5.15
2022-12-20T22:16:44.339Z,5.11
2022-12-20T22:19:14.752Z,5.14
2022-12-20T22:21:42.459Z,5.15
2022-12-20T22:24:11.036Z,5.24
2022-12-20T22:26:41.507Z,5.41
2022-12-20T22:29:09.812Z,5.53
2022-12-20T22:31:38.429Z,5.62
2022-12-20T22:34:06.365Z,5.67
2022-12-20T22:36:34.254Z,5.72
2022-12-20T22:39:01.932Z,5.73
2022-12-20T22:41:32.355Z,5.61
2022-12-20T22:44:01.969Z,5.61
2022-12-20T22:46:30.703Z,5.65
2022-12-20T22:48:58.854Z,5.67
2022-12-20T22:51:27.942Z,5.67
2022-12-20T22:53:57.704Z,5.62
2022-12-20T22:56:25.560Z,5.64
2022-12-20T22:58:53.534Z,5.80
2022-12-20T23:01:22.819Z,5.90
2022-12-20T23:03:51.052Z,5.89
2022-12-20T23:06:20.808Z,5.91
2022-12-20T23:08:49.065Z,5.97
2022-12-20T23:11:36.974Z,6.00
2022-12-20T23:14:23.231Z,6.07
2022-12-20T23:16:52.787Z,6.07
2022-12-20T23:19:20.728Z,6.09
2022-12-20T23:22:05.874Z,5.99
2022-12-20T23:24:33.567Z,6.06
2022-12-20T23:27:02.417Z,6.06
2022-12-20T23:29:30.972Z,6.04
2022-12-20T23:32:00.193Z,6.09
2022-12-20T23:34:28.223Z,6.03
2022-12-20T23:36:56.277Z,6.09
2022-12-20T23:39:24.395Z,6.17
2022-12-20T23:41:52.045Z,6.24
2022-12-20T23:44:19.791Z,6.25
2022-12-20T23:46:47.796Z,6.40
2022-12-20T23:49:17.297Z,6.31
2022-12-20T23:51:45.053Z,6.39
2022-12-20T23:54:13.363Z,6.36
2022-12-20T23:56:41.057Z,6.38
2022-12-20T23:59:09.058Z,6.44
